createdAt,value
2022-10-23T00:02:17.702Z,1.01
2022-10-23T00:05:17.685Z,0.98
2022-10-23T00:08:17.665Z,1.12
2022-10-23T00:11:17.669Z,1.11
2022-10-23T00:14:17.651Z,1.02
2022-10-23T00:17:17.705Z,1.01
2022-10-23T00:20:17.711Z,1.13
2022-10-23T00:23:17.687Z,0.98
2022-10-23T00:26:17.702Z,0.97
2022-10-23T00:29:17.657Z,0.99
2022-10-23T00:32:17.690Z,1.06
2022-10-23T00:35:17.675Z,0.94
2022-10-23T00:38:17.690Z,1.01
2022-10-23T00:41:17.717Z,1.28
2022-10-23T00:44:17.686Z,0.98
2022-10-23T00:47:17.717Z,0.87
2022-10-23T00:50:17.745Z,0.97
2022-10-23T00:53:17.700Z,1.13
2022-10-23T00:56:17.730Z,1.03
2022-10-23T00:59:17.720Z,0.99
2022-10-23T01:02:17.747Z,1.21
2022-10-23T01:05:17.733Z,1.07
2022-10-23T01:08:17.785Z,1.37
2022-10-23T01:11:17.712Z,1.11
2022-10-23T01:14:17.736Z,0.94
2022-10-23T01:17:17.747Z,1.36
2022-10-23T01:20:17.747Z,0.92
2022-10-23T01:23:17.788Z,0.9
2022-10-23T01:26:17.745Z,0.92
2022-10-23T01:29:17.794Z,0.96
2022-10-23T01:32:17.720Z,1.07
2022-10-23T01:35:17.751Z,0.85
2022-10-23T01:38:17.751Z,0.71
2022-10-23T01:41:17.764Z,1.21
2022-10-23T01:44:17.765Z,0.98
2022-10-23T01:47:17.799Z,1.23
2022-10-23T01:50:17.744Z,1.32
2022-10-23T01:53:17.790Z,1.23
2022-10-23T01:56:17.763Z,1.36
2022-10-23T01:59:17.757Z,1.31
2022-10-23T02:02:17.842Z,1.33
2022-10-23T02:05:17.811Z,1.6
2022-10-23T02:08:17.789Z,1.36
2022-10-23T02:11:17.780Z,1.28
2022-10-23T02:14:17.777Z,1.11
2022-10-23T02:17:17.797Z,1.12
2022-10-23T02:20:17.795Z,1.14
2022-10-23T02:23:17.800Z,1.27
2022-10-23T02:26:17.805Z,1.52
2022-10-23T02:29:17.791Z,1.24
2022-10-23T02:32:17.776Z,1.23
2022-10-23T02:35:17.807Z,1.41
2022-10-23T02:38:17.845Z,1.32
2022-10-23T02:41:17.818Z,1.32
2022-10-23T02:44:17.760Z,1.27
2022-10-23T02:47:17.821Z,1.26
2022-10-23T02:50:17.901Z,1.32
2022-10-23T02:53:17.812Z,1.18
2022-10-23T02:56:17.812Z,0.94
2022-10-23T02:59:17.810Z,1.07
2022-10-23T03:02:18.449Z,1.04
2022-10-23T03:05:17.840Z,0.72
2022-10-23T03:08:17.852Z,1.19
2022-10-23T03:11:17.843Z,1.07
2022-10-23T03:14:17.831Z,1.06
2022-10-23T03:17:17.826Z,1.12
2022-10-23T03:20:17.825Z,1.02
2022-10-23T03:23:17.826Z,1.08
2022-10-23T03:26:17.851Z,1.51
2022-10-23T03:29:17.822Z,1.24
2022-10-23T03:32:17.849Z,1.26
2022-10-23T03:35:17.810Z,0.98
2022-10-23T03:38:17.890Z,1.11
2022-10-23T03:41:17.866Z,1.18
2022-10-23T03:44:17.856Z,1.03
2022-10-23T03:47:17.847Z,1.04
2022-10-23T03:50:17.865Z,0.79
2022-10-23T03:53:17.876Z,1.17
2022-10-23T03:56:17.860Z,1.21
2022-10-23T03:59:17.865Z,1.12
2022-10-23T04:02:17.873Z,1.04
2022-10-23T04:05:17.868Z,1.09
2022-10-23T04:08:19.909Z,0.87
2022-10-23T04:11:17.860Z,1.19
2022-10-23T04:14:17.880Z,0.91
2022-10-23T04:17:17.940Z,1.05
2022-10-23T04:20:17.883Z,1.34
2022-10-23T04:23:17.892Z,1.13
2022-10-23T04:26:17.885Z,1.2
2022-10-23T04:29:17.926Z,1.7
2022-10-23T04:32:17.910Z,1.23
2022-10-23T04:35:17.910Z,1.02
2022-10-23T04:38:17.901Z,1.21
2022-10-23T04:41:17.954Z,1.32
2022-10-23T04:44:17.918Z,1
2022-10-23T04:47:17.920Z,1.11
2022-10-23T04:50:17.912Z,1.26
2022-10-23T04:53:17.931Z,1.1
2022-10-23T04:56:17.931Z,0.9
2022-10-23T04:59:17.957Z,1.12
2022-10-23T05:02:17.937Z,0.98
2022-10-23T05:05:17.931Z,0.95
2022-10-23T05:08:18.189Z,1.06
2022-10-23T05:11:17.938Z,1.23
2022-10-23T05:14:20.560Z,0.53
2022-10-23T05:17:17.897Z,1.02
2022-10-23T05:20:17.943Z,0.88
2022-10-23T05:23:17.941Z,0.83
2022-10-23T05:26:17.975Z,0.73
2022-10-23T05:29:17.925Z,0.56
2022-10-23T05:32:17.990Z,0.49
2022-10-23T05:35:17.932Z,0.64
2022-10-23T05:38:17.964Z,0.46
2022-10-23T05:41:17.973Z,0.57
2022-10-23T05:44:17.966Z,0.47
2022-10-23T05:47:17.970Z,0.51
2022-10-23T05:50:17.972Z,0.53
2022-10-23T05:53:17.982Z,0.51
2022-10-23T05:56:18.025Z,0.45
2022-10-23T05:59:19.113Z,0.47
2022-10-23T06:02:17.987Z,0.8
2022-10-23T06:05:17.986Z,0.72
2022-10-23T06:08:17.951Z,0.69
2022-10-23T06:11:17.972Z,0.81
2022-10-23T06:14:17.964Z,0.74
2022-10-23T06:17:18.034Z,0.78
2022-10-23T06:20:17.982Z,0.68
2022-10-23T06:23:17.996Z,0.78
2022-10-23T06:26:18.017Z,0.76
2022-10-23T06:29:18.022Z,0.88
2022-10-23T06:32:18.021Z,0.77
2022-10-23T06:35:18.046Z,0.63
2022-10-23T06:38:18.026Z,1.03
2022-10-23T06:41:18.081Z,1.18
2022-10-23T06:44:18.036Z,1.02
2022-10-23T06:50:18.016Z,0.92
2022-10-23T06:53:18.015Z,1.12
2022-10-23T06:56:18.034Z,1.1
2022-10-23T06:59:18.040Z,0.92
2022-10-23T07:02:18.067Z,1.08
2022-10-23T07:05:18.058Z,1.14
2022-10-23T07:08:18.095Z,0.98
2022-10-23T07:11:18.088Z,0.82
2022-10-23T07:14:18.055Z,1.15
2022-10-23T07:17:18.028Z,0.79
2022-10-23T07:20:18.046Z,0.62
2022-10-23T07:23:18.062Z,0.96
2022-10-23T07:26:18.053Z,0.94
2022-10-23T07:29:18.043Z,0.76
2022-10-23T07:32:20.581Z,1.12
2022-10-23T07:35:18.097Z,1.05
2022-10-23T07:38:18.106Z,0.86
2022-10-23T07:41:18.057Z,1.18
2022-10-23T07:44:18.087Z,1.15
2022-10-23T07:47:18.121Z,1.33
2022-10-23T07:50:18.046Z,1.33
2022-10-23T07:53:18.068Z,1.29
2022-10-23T07:56:18.071Z,1.29
2022-10-23T07:59:18.073Z,1.02
2022-10-23T08:02:18.105Z,1.46
2022-10-23T08:05:18.091Z,1.18
2022-10-23T08:08:18.060Z,1.29
2022-10-23T08:11:18.097Z,1.24
2022-10-23T08:14:18.153Z,1.02
2022-10-23T08:17:18.111Z,1.35
2022-10-23T08:20:18.113Z,1.47
2022-10-23T08:23:18.116Z,1.33
2022-10-23T08:26:18.066Z,1.03
2022-10-23T08:29:18.081Z,1.26
2022-10-23T08:32:18.081Z,1.7
2022-10-23T08:35:18.112Z,1.49
2022-10-23T08:38:18.122Z,1.19
2022-10-23T08:41:18.133Z,1.03
2022-10-23T08:44:18.122Z,1.18
2022-10-23T08:47:18.136Z,1.18
2022-10-23T08:50:18.171Z,1.1
2022-10-23T08:53:18.136Z,1.23
2022-10-23T08:56:18.123Z,1.16
2022-10-23T08:59:18.136Z,1.17
2022-10-23T09:02:18.264Z,1.26
2022-10-23T09:05:18.146Z,1.31
2022-10-23T09:08:18.153Z,1.33
2022-10-23T09:11:18.117Z,0.89
2022-10-23T09:14:18.183Z,0.89
2022-10-23T09:17:18.193Z,1.01
2022-10-23T09:20:18.136Z,1.04
2022-10-23T09:23:18.112Z,1.14
2022-10-23T09:26:18.173Z,0.91
2022-10-23T09:29:18.198Z,1.02
2022-10-23T09:32:18.193Z,0.92
2022-10-23T09:35:18.179Z,0.91
2022-10-23T09:38:18.182Z,0.96
2022-10-23T09:41:18.152Z,1.09
2022-10-23T09:44:18.153Z,1.22
2022-10-23T09:47:18.203Z,1.07
2022-10-23T09:50:18.213Z,1
2022-10-23T09:53:18.203Z,1.25
2022-10-23T09:56:21.281Z,1.35
2022-10-23T09:59:18.196Z,1.22
2022-10-23T10:02:18.211Z,1.14
2022-10-23T10:05:18.193Z,1.33
2022-10-23T10:08:18.209Z,1.31
2022-10-23T10:11:18.218Z,1.4
2022-10-23T10:14:18.217Z,1.4
2022-10-23T10:17:18.201Z,1.39
2022-10-23T10:20:18.211Z,1.28
2022-10-23T10:23:18.222Z,1.23
2022-10-23T10:26:18.236Z,1.39
2022-10-23T10:29:18.265Z,1.63
2022-10-23T10:32:18.206Z,1.32
2022-10-23T10:35:18.240Z,1.34
2022-10-23T10:38:18.211Z,1.3
2022-10-23T10:41:18.183Z,1.22
2022-10-23T10:44:18.202Z,1.17
2022-10-23T10:47:20.029Z,1.26
2022-10-23T10:50:18.259Z,1.06
2022-10-23T10:53:18.231Z,1.37
2022-10-23T10:56:18.232Z,1.29
2022-10-23T10:59:18.247Z,1.23
2022-10-23T11:02:18.282Z,0.92
2022-10-23T11:05:18.231Z,1.19
2022-10-23T11:08:18.249Z,1.21
2022-10-23T11:11:18.232Z,1.12
2022-10-23T11:14:18.271Z,1.02
2022-10-23T11:17:18.236Z,1.34
2022-10-23T11:20:18.282Z,1.28
2022-10-23T11:23:18.293Z,1.43
2022-10-23T11:26:19.644Z,1.16
2022-10-23T11:29:18.281Z,1.21
2022-10-23T11:32:18.252Z,0.9
2022-10-23T11:35:18.282Z,1.23
2022-10-23T11:38:18.283Z,1.13
2022-10-23T11:41:19.838Z,1.19
2022-10-23T11:44:18.295Z,1.08
2022-10-23T11:47:18.317Z,1.06
2022-10-23T11:50:18.311Z,0.93
2022-10-23T11:53:18.522Z,1.01
2022-10-23T11:56:18.304Z,1.4
2022-10-23T11:59:18.288Z,1.04
2022-10-23T12:02:18.306Z,0.96
2022-10-23T12:05:18.308Z,0.88
2022-10-23T12:08:18.312Z,0.83
2022-10-23T12:11:18.297Z,0.81
2022-10-23T12:14:18.324Z,1.08
2022-10-23T12:17:18.353Z,1.11
2022-10-23T12:20:18.335Z,1.18
2022-10-23T12:23:18.534Z,0.92
2022-10-23T12:26:18.351Z,0.91
2022-10-23T12:29:18.292Z,0.76
2022-10-23T12:32:18.366Z,0.71
2022-10-23T12:35:18.333Z,1.16
2022-10-23T12:38:18.364Z,1.02
2022-10-23T12:41:18.358Z,0.89
2022-10-23T12:44:18.346Z,0.77
2022-10-23T12:47:18.323Z,0.88
2022-10-23T12:50:18.363Z,0.96
2022-10-23T12:53:18.378Z,0.82
2022-10-23T12:56:18.339Z,1.02
2022-10-23T12:59:18.362Z,0.86
2022-10-23T13:02:18.548Z,1.09
2022-10-23T13:05:18.337Z,1.01
2022-10-23T13:08:18.368Z,1.18
2022-10-23T13:11:18.394Z,1.22
2022-10-23T13:14:18.394Z,0.95
2022-10-23T13:17:18.389Z,1.13
2022-10-23T13:20:18.417Z,1.04
2022-10-23T13:23:18.402Z,1
2022-10-23T13:26:18.374Z,1.19
2022-10-23T13:29:18.365Z,1.21
2022-10-23T13:32:18.396Z,0.8
2022-10-23T13:35:21.667Z,0.98
2022-10-23T13:38:18.429Z,0.97
2022-10-23T13:41:18.397Z,0.71
2022-10-23T13:44:18.413Z,1.01
2022-10-23T13:47:18.408Z,1.09
2022-10-23T13:50:18.402Z,1.19
2022-10-23T13:53:18.424Z,1.09
2022-10-23T13:56:18.417Z,1.22
2022-10-23T13:59:18.447Z,1.04
2022-10-23T14:02:18.536Z,1.05
2022-10-23T14:05:18.434Z,1.36
2022-10-23T14:08:18.415Z,1.5
2022-10-23T14:11:18.435Z,1.1
2022-10-23T14:14:18.422Z,1.28
2022-10-23T14:17:18.428Z,1.18
2022-10-23T14:20:19.091Z,0.95
2022-10-23T14:23:18.476Z,1.05
2022-10-23T14:26:18.438Z,0.94
2022-10-23T14:29:21.499Z,0.91
2022-10-23T14:32:18.437Z,0.87
2022-10-23T14:35:18.433Z,0.77
2022-10-23T14:38:18.448Z,0.64
2022-10-23T14:41:18.434Z,0.83
2022-10-23T14:44:18.484Z,1.07
2022-10-23T14:47:18.465Z,1.01
2022-10-23T14:50:18.491Z,0.88
2022-10-23T14:53:18.492Z,0.69
2022-10-23T14:56:18.477Z,0.73
2022-10-23T14:59:18.471Z,0.71
2022-10-23T15:02:18.537Z,0.73
2022-10-23T15:05:18.497Z,0.91
2022-10-23T15:08:18.468Z,0.76
2022-10-23T15:11:18.518Z,0.83
2022-10-23T15:14:18.453Z,0.95
2022-10-23T15:17:18.483Z,1.24
2022-10-23T15:20:18.464Z,0.97
2022-10-23T15:23:18.528Z,1.44
2022-10-23T15:26:18.517Z,1.33
2022-10-23T15:29:18.513Z,1.21
2022-10-23T15:32:18.517Z,1.13
2022-10-23T15:35:18.561Z,1.12
2022-10-23T15:38:18.484Z,1.43
2022-10-23T15:41:18.577Z,0.88
2022-10-23T15:44:18.522Z,0.78
2022-10-23T15:47:18.502Z,0.8
2022-10-23T15:50:18.528Z,1.06
2022-10-23T15:53:18.502Z,1.24
2022-10-23T15:56:18.499Z,1.08
2022-10-23T15:59:18.556Z,1.35
2022-10-23T16:02:18.580Z,1.44
2022-10-23T16:05:18.558Z,1.41
2022-10-23T16:08:18.568Z,1.32
2022-10-23T16:11:18.538Z,1.26
2022-10-23T16:14:18.605Z,1.39
2022-10-23T16:17:18.532Z,1.16
2022-10-23T16:20:18.608Z,1.22
2022-10-23T16:23:18.542Z,1.21
2022-10-23T16:26:18.542Z,1.22
2022-10-23T16:29:18.555Z,1.17
2022-10-23T16:32:18.560Z,1.07
2022-10-23T16:35:18.550Z,1.16
2022-10-23T16:38:18.557Z,1.55
2022-10-23T16:41:18.553Z,1.53
2022-10-23T16:44:18.563Z,1.58
2022-10-23T16:47:18.563Z,1.33
2022-10-23T16:50:18.566Z,1.36
2022-10-23T16:53:18.585Z,1.37
2022-10-23T16:56:18.563Z,1.37
2022-10-23T16:59:18.599Z,1.39
2022-10-23T17:02:18.694Z,1.37
2022-10-23T17:05:18.603Z,1.72
2022-10-23T17:08:18.573Z,1.33
2022-10-23T17:11:18.590Z,1.25
2022-10-23T17:14:18.625Z,1.01
2022-10-23T17:17:18.628Z,1.21
2022-10-23T17:20:18.572Z,1.36
2022-10-23T17:23:18.604Z,1.27
2022-10-23T17:26:18.599Z,1.16
2022-10-23T17:29:18.585Z,1.36
2022-10-23T17:32:18.709Z,1.06
2022-10-23T17:35:18.663Z,1.2
2022-10-23T17:38:18.609Z,1.32
2022-10-23T17:41:18.602Z,1.27
2022-10-23T17:44:18.642Z,1.51
2022-10-23T17:47:18.659Z,1.69
2022-10-23T17:50:18.619Z,1.57
2022-10-23T17:53:18.628Z,1.35
2022-10-23T17:56:18.646Z,1.57
2022-10-23T17:59:18.624Z,1.11
2022-10-23T18:02:18.711Z,1.04
2022-10-23T18:05:18.621Z,0.96
2022-10-23T18:08:18.643Z,1.04
2022-10-23T18:11:18.628Z,1.28
2022-10-23T18:14:18.667Z,1.26
2022-10-23T18:17:18.689Z,1.05
2022-10-23T18:20:18.689Z,1.18
2022-10-23T18:23:18.670Z,1.19
2022-10-23T18:26:18.658Z,1.17
2022-10-23T18:29:18.672Z,1.06
2022-10-23T18:32:18.653Z,1.09
2022-10-23T18:35:18.672Z,1.21
2022-10-23T18:38:18.690Z,1.05
2022-10-23T18:41:18.673Z,1.21
2022-10-23T18:44:18.668Z,1.09
2022-10-23T18:47:18.676Z,0.99
2022-10-23T18:50:18.662Z,0.75
2022-10-23T18:53:18.659Z,1.39
2022-10-23T18:56:18.689Z,1.24
2022-10-23T18:59:18.752Z,1.09
2022-10-23T19:02:18.766Z,1.17
2022-10-23T19:05:18.688Z,1.19
2022-10-23T19:08:18.686Z,0.81
2022-10-23T19:11:18.703Z,0.8
2022-10-23T19:14:18.709Z,0.67
2022-10-23T19:17:18.709Z,0.64
2022-10-23T19:20:18.762Z,0.88
2022-10-23T19:23:18.778Z,0.8
2022-10-23T19:26:18.707Z,0.64
2022-10-23T19:29:18.710Z,0.65
2022-10-23T19:32:18.719Z,0.81
2022-10-23T19:35:18.750Z,0.94
2022-10-23T19:38:18.717Z,1.07
2022-10-23T19:41:18.732Z,0.56
2022-10-23T19:44:18.764Z,0.66
2022-10-23T19:47:18.755Z,0.87
2022-10-23T19:50:18.694Z,0.81
2022-10-23T19:53:18.752Z,0.51
2022-10-23T19:56:18.743Z,0.99
2022-10-23T19:59:18.718Z,0.74
2022-10-23T20:02:18.866Z,0.64
2022-10-23T20:05:18.742Z,0.8
2022-10-23T20:08:18.760Z,0.77
2022-10-23T20:11:20.169Z,0.77
2022-10-23T20:14:18.763Z,0.91
2022-10-23T20:17:18.798Z,0.94
2022-10-23T20:20:18.808Z,0.75
2022-10-23T20:23:18.774Z,0.74
2022-10-23T20:26:18.863Z,1.1
2022-10-23T20:29:18.740Z,1.22
2022-10-23T20:32:18.785Z,0.92
2022-10-23T20:35:18.767Z,1.02
2022-10-23T20:38:18.787Z,1.29
2022-10-23T20:41:18.772Z,0.67
2022-10-23T20:44:18.786Z,0.72
2022-10-23T20:47:18.800Z,0.54
2022-10-23T20:50:18.808Z,0.46
2022-10-23T20:53:18.762Z,0.77
2022-10-23T20:56:18.782Z,0.8
2022-10-23T20:59:18.813Z,0.24
2022-10-23T21:02:18.879Z,0.58
2022-10-23T21:05:18.819Z,0.63
2022-10-23T21:08:18.820Z,0.78
2022-10-23T21:11:18.813Z,0.2
2022-10-23T21:14:18.813Z,0.39
2022-10-23T21:17:18.804Z,0.22
2022-10-23T21:20:18.819Z,0.83
2022-10-23T21:23:18.789Z,0.85
2022-10-23T21:26:18.863Z,0.54
2022-10-23T21:29:19.977Z,0.41
2022-10-23T21:32:18.843Z,0.51
2022-10-23T21:35:18.820Z,0.51
2022-10-23T21:38:18.854Z,0.86
2022-10-23T21:41:18.811Z,1.16
2022-10-23T21:44:18.851Z,0.72
2022-10-23T21:47:18.816Z,0.46
2022-10-23T21:50:18.863Z,0.45
2022-10-23T21:53:18.829Z,0.7
2022-10-23T21:56:18.854Z,0.39
2022-10-23T21:59:18.876Z,0.25
2022-10-23T22:02:18.914Z,0.48
2022-10-23T22:05:18.852Z,1.08
2022-10-23T22:08:18.864Z,1.55
2022-10-23T22:11:18.883Z,0.77
2022-10-23T22:14:18.940Z,1.25
2022-10-23T22:17:18.835Z,2.05
2022-10-23T22:20:18.870Z,1.68
2022-10-23T22:23:18.856Z,0.82
2022-10-23T22:26:18.878Z,0.68
2022-10-23T22:29:18.888Z,1.03
2022-10-23T22:32:18.866Z,0.92
2022-10-23T22:35:18.879Z,1.01
2022-10-23T22:38:18.851Z,0.99
2022-10-23T22:41:18.922Z,0.96
2022-10-23T22:44:18.868Z,0.92
2022-10-23T22:47:18.888Z,1.4
2022-10-23T22:50:18.879Z,1.49
2022-10-23T22:53:18.895Z,1.6
2022-10-23T22:56:18.931Z,1.42
2022-10-23T22:59:18.904Z,1.59
2022-10-23T23:02:18.913Z,1.17
2022-10-23T23:05:18.913Z,1.33
2022-10-23T23:08:18.905Z,1.08
2022-10-23T23:11:18.896Z,1.04
2022-10-23T23:14:20.369Z,0.97
2022-10-23T23:17:18.905Z,1.23
2022-10-23T23:20:18.913Z,1.53
2022-10-23T23:23:18.909Z,1.27
2022-10-23T23:26:18.909Z,1.09
2022-10-23T23:29:18.919Z,1.5
2022-10-23T23:32:18.955Z,1.19
2022-10-23T23:35:18.931Z,1.65
2022-10-23T23:38:18.903Z,0.94
2022-10-23T23:41:18.924Z,1.09
2022-10-23T23:44:18.918Z,1.61
2022-10-23T23:47:18.994Z,1.36
2022-10-23T23:50:18.966Z,1.16
2022-10-23T23:53:18.915Z,1.11
2022-10-23T23:56:18.933Z,1.47
2022-10-23T23:59:18.953Z,1.12
